RJNG(METAR)
08/23 01:00
METAR RJNG 221600Z VRB01KT 9999 -SHRA SCT030 BKN100 25/23 Q1014 RMK
3CU030 5AC100 A2996=
戻る
トップページへ戻る
IMOC Co,.Ltd.